sensor_id;sensor_type;location;lat;lon;timestamp;temperature;humidity
67870;DHT22;54673;52.262;6.830;2022-12-17T00:00:47;14.10;45.30
67870;DHT22;54673;52.262;6.830;2022-12-17T00:03:31;14.10;46.20
67870;DHT22;54673;52.262;6.830;2022-12-17T00:06:17;14.10;45.30
67870;DHT22;54673;52.262;6.830;2022-12-17T00:09:01;14.00;45.30
67870;DHT22;54673;52.262;6.830;2022-12-17T00:11:46;14.10;45.40
67870;DHT22;54673;52.262;6.830;2022-12-17T00:14:30;14.10;45.40
67870;DHT22;54673;52.262;6.830;2022-12-17T00:17:14;14.00;45.40
67870;DHT22;54673;52.262;6.830;2022-12-17T00:19:59;14.00;45.40
67870;DHT22;54673;52.262;6.830;2022-12-17T00:22:43;14.00;45.50
67870;DHT22;54673;52.262;6.830;2022-12-17T00:25:28;14.00;45.50
67870;DHT22;54673;52.262;6.830;2022-12-17T00:28:12;14.20;45.50
67870;DHT22;54673;52.262;6.830;2022-12-17T00:30:58;14.00;45.30
67870;DHT22;54673;52.262;6.830;2022-12-17T00:33:42;13.90;45.40
67870;DHT22;54673;52.262;6.830;2022-12-17T00:36:26;13.90;45.40
67870;DHT22;54673;52.262;6.830;2022-12-17T00:39:11;13.90;45.50
67870;DHT22;54673;52.262;6.830;2022-12-17T00:41:55;13.90;45.40
67870;DHT22;54673;52.262;6.830;2022-12-17T00:44:40;13.90;45.40
67870;DHT22;54673;52.262;6.830;2022-12-17T00:47:24;13.70;45.40
67870;DHT22;54673;52.262;6.830;2022-12-17T00:50:09;13.90;45.50
67870;DHT22;54673;52.262;6.830;2022-12-17T00:52:53;13.90;45.50
67870;DHT22;54673;52.262;6.830;2022-12-17T00:55:38;13.90;45.50
67870;DHT22;54673;52.262;6.830;2022-12-17T00:58:22;13.90;45.50
67870;DHT22;54673;52.262;6.830;2022-12-17T01:01:06;13.30;45.20
67870;DHT22;54673;52.262;6.830;2022-12-17T01:03:51;13.80;45.40
67870;DHT22;54673;52.262;6.830;2022-12-17T01:06:35;13.90;45.50
67870;DHT22;54673;52.262;6.830;2022-12-17T01:09:19;13.80;45.50
67870;DHT22;54673;52.262;6.830;2022-12-17T01:12:03;13.80;45.50
67870;DHT22;54673;52.262;6.830;2022-12-17T01:14:48;13.80;45.50
67870;DHT22;54673;52.262;6.830;2022-12-17T01:17:32;13.80;45.50
67870;DHT22;54673;52.262;6.830;2022-12-17T01:20:17;13.80;45.50
67870;DHT22;54673;52.262;6.830;2022-12-17T01:23:01;13.80;45.50
67870;DHT22;54673;52.262;6.830;2022-12-17T01:25:53;13.80;45.50
67870;DHT22;54673;52.262;6.830;2022-12-17T01:28:58;14.60;46.00
67870;DHT22;54673;52.262;6.830;2022-12-17T01:31:42;13.80;45.50
67870;DHT22;54673;52.262;6.830;2022-12-17T01:34:26;13.70;45.40
67870;DHT22;54673;52.262;6.830;2022-12-17T01:37:10;13.70;45.40
67870;DHT22;54673;52.262;6.830;2022-12-17T01:39:54;13.70;45.50
67870;DHT22;54673;52.262;6.830;2022-12-17T01:42:40;14.00;45.70
67870;DHT22;54673;52.262;6.830;2022-12-17T01:45:29;13.70;45.60
67870;DHT22;54673;52.262;6.830;2022-12-17T01:48:16;13.70;45.60
67870;DHT22;54673;52.262;6.830;2022-12-17T01:51:01;13.70;45.70
67870;DHT22;54673;52.262;6.830;2022-12-17T01:53:48;13.70;45.60
67870;DHT22;54673;52.262;6.830;2022-12-17T01:56:40;13.70;45.60
67870;DHT22;54673;52.262;6.830;2022-12-17T01:59:34;13.70;45.60
67870;DHT22;54673;52.262;6.830;2022-12-17T02:02:20;13.60;45.60
67870;DHT22;54673;52.262;6.830;2022-12-17T02:05:04;13.60;45.70
67870;DHT22;54673;52.262;6.830;2022-12-17T02:13:38;13.60;45.70
67870;DHT22;54673;52.262;6.830;2022-12-17T02:16:36;13.60;45.70
67870;DHT22;54673;52.262;6.830;2022-12-17T02:20:05;13.60;45.80
67870;DHT22;54673;52.262;6.830;2022-12-17T02:23:20;13.60;45.70
67870;DHT22;54673;52.262;6.830;2022-12-17T02:26:14;13.50;45.60
67870;DHT22;54673;52.262;6.830;2022-12-17T02:29:02;13.60;45.70
67870;DHT22;54673;52.262;6.830;2022-12-17T02:31:47;13.60;45.70
67870;DHT22;54673;52.262;6.830;2022-12-17T02:34:42;13.60;45.70
67870;DHT22;54673;52.262;6.830;2022-12-17T02:37:26;13.60;45.70
67870;DHT22;54673;52.262;6.830;2022-12-17T02:40:10;13.60;45.70
67870;DHT22;54673;52.262;6.830;2022-12-17T02:42:54;13.50;45.60
67870;DHT22;54673;52.262;6.830;2022-12-17T02:45:39;13.50;45.60
67870;DHT22;54673;52.262;6.830;2022-12-17T02:48:24;13.50;45.70
67870;DHT22;54673;52.262;6.830;2022-12-17T02:51:09;13.50;45.80
67870;DHT22;54673;52.262;6.830;2022-12-17T02:53:53;13.50;45.70
67870;DHT22;54673;52.262;6.830;2022-12-17T02:56:37;13.50;45.70
67870;DHT22;54673;52.262;6.830;2022-12-17T02:59:21;13.50;45.70
67870;DHT22;54673;52.262;6.830;2022-12-17T03:02:06;13.50;45.60
67870;DHT22;54673;52.262;6.830;2022-12-17T03:04:50;13.50;45.60
67870;DHT22;54673;52.262;6.830;2022-12-17T03:07:34;13.40;45.60
67870;DHT22;54673;52.262;6.830;2022-12-17T03:10:19;13.50;45.70
67870;DHT22;54673;52.262;6.830;2022-12-17T03:13:03;13.40;45.60
67870;DHT22;54673;52.262;6.830;2022-12-17T03:15:47;13.40;45.60
67870;DHT22;54673;52.262;6.830;2022-12-17T03:18:32;13.40;45.60
67870;DHT22;54673;52.262;6.830;2022-12-17T03:21:16;13.40;45.50
67870;DHT22;54673;52.262;6.830;2022-12-17T03:24:00;13.40;45.60
67870;DHT22;54673;52.262;6.830;2022-12-17T03:26:45;13.40;45.70
67870;DHT22;54673;52.262;6.830;2022-12-17T03:29:29;13.40;45.60
67870;DHT22;54673;52.262;6.830;2022-12-17T03:32:13;13.40;45.50
67870;DHT22;54673;52.262;6.830;2022-12-17T03:34:58;13.40;45.50
67870;DHT22;54673;52.262;6.830;2022-12-17T03:37:42;13.40;45.50
67870;DHT22;54673;52.262;6.830;2022-12-17T03:40:26;13.40;45.50
67870;DHT22;54673;52.262;6.830;2022-12-17T03:43:11;14.60;46.20
67870;DHT22;54673;52.262;6.830;2022-12-17T03:45:55;13.30;45.40
67870;DHT22;54673;52.262;6.830;2022-12-17T03:48:40;13.30;45.50
67870;DHT22;54673;52.262;6.830;2022-12-17T03:51:25;13.30;45.50
67870;DHT22;54673;52.262;6.830;2022-12-17T03:54:09;13.30;45.50
67870;DHT22;54673;52.262;6.830;2022-12-17T03:56:54;13.30;45.40
67870;DHT22;54673;52.262;6.830;2022-12-17T03:59:38;13.30;45.50
67870;DHT22;54673;52.262;6.830;2022-12-17T04:02:23;13.30;45.40
67870;DHT22;54673;52.262;6.830;2022-12-17T04:05:07;13.30;45.40
67870;DHT22;54673;52.262;6.830;2022-12-17T04:07:52;13.30;45.40
67870;DHT22;54673;52.262;6.830;2022-12-17T04:10:36;13.30;45.40
67870;DHT22;54673;52.262;6.830;2022-12-17T04:13:20;13.30;45.40
67870;DHT22;54673;52.262;6.830;2022-12-17T04:16:05;13.30;45.40
67870;DHT22;54673;52.262;6.830;2022-12-17T04:18:49;13.30;45.40
67870;DHT22;54673;52.262;6.830;2022-12-17T04:21:33;13.30;45.40
67870;DHT22;54673;52.262;6.830;2022-12-17T04:24:18;13.20;45.30
67870;DHT22;54673;52.262;6.830;2022-12-17T04:27:02;13.20;45.30
67870;DHT22;54673;52.262;6.830;2022-12-17T04:29:48;13.20;45.40
67870;DHT22;54673;52.262;6.830;2022-12-17T04:32:33;13.20;45.40
67870;DHT22;54673;52.262;6.830;2022-12-17T04:35:17;13.20;45.30
67870;DHT22;54673;52.262;6.830;2022-12-17T04:38:02;13.20;45.40
67870;DHT22;54673;52.262;6.830;2022-12-17T04:40:46;13.20;45.30
67870;DHT22;54673;52.262;6.830;2022-12-17T04:43:30;13.20;45.30
67870;DHT22;54673;52.262;6.830;2022-12-17T04:46:15;13.20;45.40
67870;DHT22;54673;52.262;6.830;2022-12-17T04:48:59;13.20;45.40
67870;DHT22;54673;52.262;6.830;2022-12-17T04:51:44;13.20;45.30
67870;DHT22;54673;52.262;6.830;2022-12-17T04:54:29;13.20;45.40
67870;DHT22;54673;52.262;6.830;2022-12-17T04:57:13;13.20;45.30
67870;DHT22;54673;52.262;6.830;2022-12-17T04:59:58;13.20;45.30
67870;DHT22;54673;52.262;6.830;2022-12-17T05:02:42;13.20;45.40
67870;DHT22;54673;52.262;6.830;2022-12-17T05:05:26;13.20;45.30
67870;DHT22;54673;52.262;6.830;2022-12-17T05:08:11;13.10;45.30
67870;DHT22;54673;52.262;6.830;2022-12-17T05:11:01;13.20;45.30
67870;DHT22;54673;52.262;6.830;2022-12-17T05:13:45;12.50;44.90
67870;DHT22;54673;52.262;6.830;2022-12-17T05:16:29;13.10;45.20
67870;DHT22;54673;52.262;6.830;2022-12-17T05:19:14;13.20;45.30
67870;DHT22;54673;52.262;6.830;2022-12-17T05:21:58;13.10;45.20
67870;DHT22;54673;52.262;6.830;2022-12-17T05:24:42;13.20;45.20
67870;DHT22;54673;52.262;6.830;2022-12-17T05:27:26;13.10;45.30
67870;DHT22;54673;52.262;6.830;2022-12-17T05:30:11;13.10;45.30
67870;DHT22;54673;52.262;6.830;2022-12-17T05:32:59;13.10;45.20
67870;DHT22;54673;52.262;6.830;2022-12-17T05:35:44;13.10;45.20
67870;DHT22;54673;52.262;6.830;2022-12-17T05:38:28;13.20;45.30
67870;DHT22;54673;52.262;6.830;2022-12-17T05:41:13;13.10;45.20
67870;DHT22;54673;52.262;6.830;2022-12-17T05:43:57;13.10;45.20
67870;DHT22;54673;52.262;6.830;2022-12-17T05:46:42;13.10;45.20
67870;DHT22;54673;52.262;6.830;2022-12-17T05:49:26;13.10;45.30
67870;DHT22;54673;52.262;6.830;2022-12-17T05:52:10;13.00;45.10
67870;DHT22;54673;52.262;6.830;2022-12-17T05:54:54;13.10;45.20
67870;DHT22;54673;52.262;6.830;2022-12-17T05:57:39;13.10;45.20
67870;DHT22;54673;52.262;6.830;2022-12-17T06:00:23;13.10;45.20
67870;DHT22;54673;52.262;6.830;2022-12-17T06:03:08;13.00;45.20
67870;DHT22;54673;52.262;6.830;2022-12-17T06:05:55;13.00;45.10
67870;DHT22;54673;52.262;6.830;2022-12-17T06:08:40;13.00;45.20
67870;DHT22;54673;52.262;6.830;2022-12-17T06:11:24;13.00;45.10
67870;DHT22;54673;52.262;6.830;2022-12-17T06:14:09;13.00;45.20
67870;DHT22;54673;52.262;6.830;2022-12-17T06:16:54;13.00;45.10
67870;DHT22;54673;52.262;6.830;2022-12-17T06:19:38;13.00;45.20
67870;DHT22;54673;52.262;6.830;2022-12-17T06:22:23;13.00;45.10
67870;DHT22;54673;52.262;6.830;2022-12-17T06:25:07;13.00;45.10
67870;DHT22;54673;52.262;6.830;2022-12-17T06:27:59;13.00;45.00
67870;DHT22;54673;52.262;6.830;2022-12-17T06:30:49;13.00;45.10
67870;DHT22;54673;52.262;6.830;2022-12-17T06:33:33;13.00;45.10
67870;DHT22;54673;52.262;6.830;2022-12-17T06:36:18;13.00;45.10
67870;DHT22;54673;52.262;6.830;2022-12-17T06:39:02;13.00;45.10
67870;DHT22;54673;52.262;6.830;2022-12-17T06:41:47;12.90;45.00
67870;DHT22;54673;52.262;6.830;2022-12-17T06:44:31;13.00;45.00
67870;DHT22;54673;52.262;6.830;2022-12-17T06:47:15;13.00;45.60
67870;DHT22;54673;52.262;6.830;2022-12-17T06:49:59;13.00;45.00
67870;DHT22;54673;52.262;6.830;2022-12-17T06:52:44;13.00;45.00
67870;DHT22;54673;52.262;6.830;2022-12-17T06:55:28;12.90;45.00
67870;DHT22;54673;52.262;6.830;2022-12-17T06:58:13;13.00;45.00
67870;DHT22;54673;52.262;6.830;2022-12-17T07:00:57;13.00;45.10
67870;DHT22;54673;52.262;6.830;2022-12-17T07:03:41;12.90;45.10
67870;DHT22;54673;52.262;6.830;2022-12-17T07:06:25;12.90;45.10
67870;DHT22;54673;52.262;6.830;2022-12-17T07:09:10;13.00;45.00
67870;DHT22;54673;52.262;6.830;2022-12-17T07:11:54;12.90;45.10
67870;DHT22;54673;52.262;6.830;2022-12-17T07:14:38;12.90;45.00
67870;DHT22;54673;52.262;6.830;2022-12-17T07:17:23;12.90;45.10
67870;DHT22;54673;52.262;6.830;2022-12-17T07:20:07;12.90;44.90
67870;DHT22;54673;52.262;6.830;2022-12-17T07:22:55;12.90;45.80
67870;DHT22;54673;52.262;6.830;2022-12-17T07:25:40;12.90;45.00
67870;DHT22;54673;52.262;6.830;2022-12-17T07:28:24;12.90;45.00
67870;DHT22;54673;52.262;6.830;2022-12-17T07:31:08;12.90;45.00
67870;DHT22;54673;52.262;6.830;2022-12-17T07:33:53;12.90;45.00
67870;DHT22;54673;52.262;6.830;2022-12-17T07:36:37;12.90;45.80
67870;DHT22;54673;52.262;6.830;2022-12-17T07:39:22;12.90;45.10
67870;DHT22;54673;52.262;6.830;2022-12-17T07:42:06;12.90;45.10
67870;DHT22;54673;52.262;6.830;2022-12-17T07:44:50;12.90;45.10
67870;DHT22;54673;52.262;6.830;2022-12-17T07:47:35;12.90;45.00
67870;DHT22;54673;52.262;6.830;2022-12-17T07:50:19;12.90;45.00
67870;DHT22;54673;52.262;6.830;2022-12-17T07:53:04;12.90;45.00
67870;DHT22;54673;52.262;6.830;2022-12-17T07:55:48;12.90;45.00
67870;DHT22;54673;52.262;6.830;2022-12-17T07:58:32;12.90;44.90
67870;DHT22;54673;52.262;6.830;2022-12-17T08:01:17;12.90;44.80
67870;DHT22;54673;52.262;6.830;2022-12-17T08:04:01;12.90;44.80
67870;DHT22;54673;52.262;6.830;2022-12-17T08:06:45;12.90;44.90
67870;DHT22;54673;52.262;6.830;2022-12-17T08:09:30;12.90;44.90
67870;DHT22;54673;52.262;6.830;2022-12-17T08:12:14;12.90;45.80
67870;DHT22;54673;52.262;6.830;2022-12-17T08:14:58;12.90;45.80
67870;DHT22;54673;52.262;6.830;2022-12-17T08:17:43;13.00;44.90
67870;DHT22;54673;52.262;6.830;2022-12-17T08:20:27;12.90;44.90
67870;DHT22;54673;52.262;6.830;2022-12-17T08:23:11;13.00;44.90
67870;DHT22;54673;52.262;6.830;2022-12-17T08:25:56;12.90;44.80
67870;DHT22;54673;52.262;6.830;2022-12-17T08:28:40;12.90;45.00
67870;DHT22;54673;52.262;6.830;2022-12-17T08:31:25;12.90;44.90
67870;DHT22;54673;52.262;6.830;2022-12-17T08:34:09;13.00;45.00
67870;DHT22;54673;52.262;6.830;2022-12-17T08:36:53;13.00;45.00
67870;DHT22;54673;52.262;6.830;2022-12-17T08:39:51;13.00;45.00
67870;DHT22;54673;52.262;6.830;2022-12-17T08:42:35;13.00;44.90
67870;DHT22;54673;52.262;6.830;2022-12-17T08:45:20;13.00;44.90
67870;DHT22;54673;52.262;6.830;2022-12-17T08:48:05;13.00;44.90
67870;DHT22;54673;52.262;6.830;2022-12-17T08:50:50;13.00;44.80
67870;DHT22;54673;52.262;6.830;2022-12-17T08:53:35;13.00;44.90
67870;DHT22;54673;52.262;6.830;2022-12-17T08:56:19;13.00;44.90
67870;DHT22;54673;52.262;6.830;2022-12-17T08:59:03;13.00;44.90
67870;DHT22;54673;52.262;6.830;2022-12-17T09:01:48;13.10;45.00
67870;DHT22;54673;52.262;6.830;2022-12-17T09:04:32;13.30;45.10
67870;DHT22;54673;52.262;6.830;2022-12-17T09:07:16;13.10;45.10
67870;DHT22;54673;52.262;6.830;2022-12-17T09:10:00;13.10;45.10
67870;DHT22;54673;52.262;6.830;2022-12-17T09:12:44;13.10;45.10
67870;DHT22;54673;52.262;6.830;2022-12-17T09:15:28;13.10;45.10
67870;DHT22;54673;52.262;6.830;2022-12-17T09:18:18;13.10;45.10
67870;DHT22;54673;52.262;6.830;2022-12-17T09:21:03;13.10;45.10
67870;DHT22;54673;52.262;6.830;2022-12-17T09:23:47;13.10;45.20
67870;DHT22;54673;52.262;6.830;2022-12-17T09:26:32;13.10;45.10
67870;DHT22;54673;52.262;6.830;2022-12-17T09:29:16;13.10;45.10
67870;DHT22;54673;52.262;6.830;2022-12-17T09:32:00;13.10;45.10
67870;DHT22;54673;52.262;6.830;2022-12-17T09:34:45;13.20;45.20
67870;DHT22;54673;52.262;6.830;2022-12-17T09:37:29;13.10;45.10
67870;DHT22;54673;52.262;6.830;2022-12-17T09:40:20;13.10;45.10
67870;DHT22;54673;52.262;6.830;2022-12-17T09:46:14;13.10;45.10
67870;DHT22;54673;52.262;6.830;2022-12-17T09:49:04;13.10;45.10
67870;DHT22;54673;52.262;6.830;2022-12-17T09:51:54;13.10;46.10
67870;DHT22;54673;52.262;6.830;2022-12-17T09:54:41;13.10;45.10
67870;DHT22;54673;52.262;6.830;2022-12-17T09:57:32;13.10;45.10
67870;DHT22;54673;52.262;6.830;2022-12-17T10:00:23;13.20;45.30
67870;DHT22;54673;52.262;6.830;2022-12-17T10:03:16;13.20;45.20
67870;DHT22;54673;52.262;6.830;2022-12-17T10:06:08;13.20;45.20
67870;DHT22;54673;52.262;6.830;2022-12-17T10:08:58;13.20;45.20
67870;DHT22;54673;52.262;6.830;2022-12-17T10:11:43;13.20;45.20
67870;DHT22;54673;52.262;6.830;2022-12-17T10:14:27;13.20;45.20
67870;DHT22;54673;52.262;6.830;2022-12-17T10:17:17;13.20;45.20
67870;DHT22;54673;52.262;6.830;2022-12-17T10:20:03;13.20;45.20
67870;DHT22;54673;52.262;6.830;2022-12-17T10:22:49;13.20;45.20
67870;DHT22;54673;52.262;6.830;2022-12-17T10:25:34;13.20;45.20
67870;DHT22;54673;52.262;6.830;2022-12-17T10:28:23;13.20;45.30
67870;DHT22;54673;52.262;6.830;2022-12-17T10:31:10;13.20;45.80
67870;DHT22;54673;52.262;6.830;2022-12-17T10:33:55;13.30;46.40
67870;DHT22;54673;52.262;6.830;2022-12-17T10:36:48;13.40;47.10
67870;DHT22;54673;52.262;6.830;2022-12-17T10:39:33;13.50;47.40
67870;DHT22;54673;52.262;6.830;2022-12-17T10:42:23;13.70;47.40
67870;DHT22;54673;52.262;6.830;2022-12-17T10:45:26;13.90;47.30
67870;DHT22;54673;52.262;6.830;2022-12-17T10:48:25;14.00;47.50
67870;DHT22;54673;52.262;6.830;2022-12-17T10:51:31;14.20;47.00
67870;DHT22;54673;52.262;6.830;2022-12-17T10:54:29;14.30;46.80
67870;DHT22;54673;52.262;6.830;2022-12-17T11:00:37;14.50;47.30
67870;DHT22;54673;52.262;6.830;2022-12-17T11:03:54;14.70;47.30
67870;DHT22;54673;52.262;6.830;2022-12-17T11:06:47;14.90;47.20
67870;DHT22;54673;52.262;6.830;2022-12-17T11:09:47;15.00;47.10
67870;DHT22;54673;52.262;6.830;2022-12-17T11:12:42;15.10;46.90
67870;DHT22;54673;52.262;6.830;2022-12-17T11:15:51;15.20;46.70
67870;DHT22;54673;52.262;6.830;2022-12-17T11:18:57;15.30;46.50
67870;DHT22;54673;52.262;6.830;2022-12-17T11:21:47;15.40;46.40
67870;DHT22;54673;52.262;6.830;2022-12-17T11:24:42;15.50;46.20
67870;DHT22;54673;52.262;6.830;2022-12-17T11:27:39;15.60;46.30
67870;DHT22;54673;52.262;6.830;2022-12-17T11:30:25;15.60;46.20
67870;DHT22;54673;52.262;6.830;2022-12-17T11:33:22;15.60;46.10
67870;DHT22;54673;52.262;6.830;2022-12-17T11:36:53;15.70;46.10
67870;DHT22;54673;52.262;6.830;2022-12-17T11:39:32;15.70;46.10
67870;DHT22;54673;52.262;6.830;2022-12-17T11:42:27;15.80;46.10
67870;DHT22;54673;52.262;6.830;2022-12-17T11:45:33;15.80;46.00
67870;DHT22;54673;52.262;6.830;2022-12-17T11:51:21;16.00;46.10
67870;DHT22;54673;52.262;6.830;2022-12-17T11:54:14;16.10;46.00
67870;DHT22;54673;52.262;6.830;2022-12-17T11:57:23;16.20;45.90
67870;DHT22;54673;52.262;6.830;2022-12-17T12:00:17;16.20;45.80
67870;DHT22;54673;52.262;6.830;2022-12-17T12:09:53;16.40;45.70
67870;DHT22;54673;52.262;6.830;2022-12-17T12:21:39;16.50;45.60
67870;DHT22;54673;52.262;6.830;2022-12-17T12:24:56;16.60;45.30
67870;DHT22;54673;52.262;6.830;2022-12-17T12:27:50;16.60;45.40
67870;DHT22;54673;52.262;6.830;2022-12-17T12:33:43;16.60;45.10
67870;DHT22;54673;52.262;6.830;2022-12-17T12:36:28;16.50;44.70
67870;DHT22;54673;52.262;6.830;2022-12-17T12:39:19;16.50;44.60
67870;DHT22;54673;52.262;6.830;2022-12-17T12:42:31;16.40;44.50
67870;DHT22;54673;52.262;6.830;2022-12-17T12:51:29;16.10;44.40
67870;DHT22;54673;52.262;6.830;2022-12-17T13:00:30;16.00;45.10
67870;DHT22;54673;52.262;6.830;2022-12-17T13:03:36;16.10;45.10
67870;DHT22;54673;52.262;6.830;2022-12-17T13:11:40;16.10;45.10
67870;DHT22;54673;52.262;6.830;2022-12-17T13:14:16;16.10;45.00
67870;DHT22;54673;52.262;6.830;2022-12-17T13:24:39;16.20;45.00
67870;DHT22;54673;52.262;6.830;2022-12-17T13:27:28;16.20;44.90
67870;DHT22;54673;52.262;6.830;2022-12-17T13:32:45;16.20;44.60
67870;DHT22;54673;52.262;6.830;2022-12-17T13:38:08;16.20;44.30
67870;DHT22;54673;52.262;6.830;2022-12-17T13:43:23;16.10;44.20
67870;DHT22;54673;52.262;6.830;2022-12-17T13:45:51;16.00;44.10
67870;DHT22;54673;52.262;6.830;2022-12-17T13:48:22;16.00;43.90
67870;DHT22;54673;52.262;6.830;2022-12-17T13:51:03;15.90;43.90
67870;DHT22;54673;52.262;6.830;2022-12-17T13:53:31;15.30;43.70
67870;DHT22;54673;52.262;6.830;2022-12-17T13:56:00;15.80;44.80
67870;DHT22;54673;52.262;6.830;2022-12-17T13:58:28;15.80;44.10
67870;DHT22;54673;52.262;6.830;2022-12-17T14:01:10;15.70;43.90
67870;DHT22;54673;52.262;6.830;2022-12-17T14:03:37;15.70;44.00
67870;DHT22;54673;52.262;6.830;2022-12-17T14:06:08;15.60;44.00
67870;DHT22;54673;52.262;6.830;2022-12-17T14:08:34;15.60;44.20
67870;DHT22;54673;52.262;6.830;2022-12-17T14:11:01;15.50;44.10
67870;DHT22;54673;52.262;6.830;2022-12-17T14:13:47;15.50;44.20
67870;DHT22;54673;52.262;6.830;2022-12-17T14:16:18;15.50;44.10
67870;DHT22;54673;52.262;6.830;2022-12-17T14:18:52;15.50;44.10
67870;DHT22;54673;52.262;6.830;2022-12-17T14:21:19;15.50;44.00
67870;DHT22;54673;52.262;6.830;2022-12-17T14:23:48;15.40;44.00
67870;DHT22;54673;52.262;6.830;2022-12-17T14:26:15;15.40;44.10
67870;DHT22;54673;52.262;6.830;2022-12-17T14:28:52;15.40;44.10
67870;DHT22;54673;52.262;6.830;2022-12-17T14:31:22;15.40;44.10
67870;DHT22;54673;52.262;6.830;2022-12-17T14:34:08;15.40;44.20
67870;DHT22;54673;52.262;6.830;2022-12-17T14:36:40;15.30;44.10
67870;DHT22;54673;52.262;6.830;2022-12-17T14:39:25;15.30;44.20
67870;DHT22;54673;52.262;6.830;2022-12-17T14:41:54;15.20;44.10
67870;DHT22;54673;52.262;6.830;2022-12-17T14:47:39;15.20;44.20
67870;DHT22;54673;52.262;6.830;2022-12-17T14:52:52;15.10;44.20
67870;DHT22;54673;52.262;6.830;2022-12-17T14:55:36;15.10;44.30
67870;DHT22;54673;52.262;6.830;2022-12-17T15:00:38;15.00;44.80
67870;DHT22;54673;52.262;6.830;2022-12-17T15:03:04;15.10;44.40
67870;DHT22;54673;52.262;6.830;2022-12-17T15:05:30;15.00;44.40
67870;DHT22;54673;52.262;6.830;2022-12-17T15:07:55;15.00;44.40
67870;DHT22;54673;52.262;6.830;2022-12-17T15:10:21;14.90;44.40
67870;DHT22;54673;52.262;6.830;2022-12-17T15:12:47;14.90;44.40
67870;DHT22;54673;52.262;6.830;2022-12-17T15:15:16;14.90;44.30
67870;DHT22;54673;52.262;6.830;2022-12-17T15:17:42;14.90;44.40
67870;DHT22;54673;52.262;6.830;2022-12-17T15:20:15;14.90;44.40
67870;DHT22;54673;52.262;6.830;2022-12-17T15:22:41;14.90;44.40
67870;DHT22;54673;52.262;6.830;2022-12-17T15:25:12;14.90;44.40
67870;DHT22;54673;52.262;6.830;2022-12-17T15:27:38;14.80;44.30
67870;DHT22;54673;52.262;6.830;2022-12-17T15:30:04;14.80;44.30
67870;DHT22;54673;52.262;6.830;2022-12-17T15:32:30;14.80;44.30
67870;DHT22;54673;52.262;6.830;2022-12-17T15:34:55;14.80;44.30
67870;DHT22;54673;52.262;6.830;2022-12-17T15:37:21;14.80;44.30
67870;DHT22;54673;52.262;6.830;2022-12-17T15:39:46;14.80;44.30
67870;DHT22;54673;52.262;6.830;2022-12-17T15:42:12;14.70;44.20
67870;DHT22;54673;52.262;6.830;2022-12-17T15:44:56;14.80;44.30
67870;DHT22;54673;52.262;6.830;2022-12-17T15:47:22;14.70;44.20
67870;DHT22;54673;52.262;6.830;2022-12-17T15:49:47;14.70;44.20
67870;DHT22;54673;52.262;6.830;2022-12-17T15:52:13;14.70;44.20
67870;DHT22;54673;52.262;6.830;2022-12-17T15:54:42;14.70;44.30
67870;DHT22;54673;52.262;6.830;2022-12-17T15:57:08;14.70;44.20
67870;DHT22;54673;52.262;6.830;2022-12-17T15:59:34;14.70;44.30
67870;DHT22;54673;52.262;6.830;2022-12-17T16:01:59;14.60;44.20
67870;DHT22;54673;52.262;6.830;2022-12-17T16:04:25;14.60;44.20
67870;DHT22;54673;52.262;6.830;2022-12-17T16:06:51;14.60;44.10
67870;DHT22;54673;52.262;6.830;2022-12-17T16:09:16;14.60;44.20
67870;DHT22;54673;52.262;6.830;2022-12-17T16:11:42;14.60;44.20
67870;DHT22;54673;52.262;6.830;2022-12-17T16:14:08;14.60;44.20
67870;DHT22;54673;52.262;6.830;2022-12-17T16:16:33;14.40;44.00
67870;DHT22;54673;52.262;6.830;2022-12-17T16:18:59;14.60;44.20
67870;DHT22;54673;52.262;6.830;2022-12-17T16:21:26;14.60;44.20
67870;DHT22;54673;52.262;6.830;2022-12-17T16:23:52;14.60;44.10
67870;DHT22;54673;52.262;6.830;2022-12-17T16:26:18;14.60;44.10
67870;DHT22;54673;52.262;6.830;2022-12-17T16:28:44;14.60;44.10
67870;DHT22;54673;52.262;6.830;2022-12-17T16:31:13;14.60;44.20
67870;DHT22;54673;52.262;6.830;2022-12-17T16:33:40;14.50;44.00
67870;DHT22;54673;52.262;6.830;2022-12-17T16:36:09;14.50;44.10
67870;DHT22;54673;52.262;6.830;2022-12-17T16:38:40;14.50;44.00
67870;DHT22;54673;52.262;6.830;2022-12-17T16:41:06;14.50;44.10
67870;DHT22;54673;52.262;6.830;2022-12-17T16:43:33;14.50;44.00
67870;DHT22;54673;52.262;6.830;2022-12-17T16:45:58;14.60;44.10
67870;DHT22;54673;52.262;6.830;2022-12-17T16:48:24;14.50;44.00
67870;DHT22;54673;52.262;6.830;2022-12-17T16:50:50;14.50;44.00
67870;DHT22;54673;52.262;6.830;2022-12-17T16:53:16;14.30;43.90
67870;DHT22;54673;52.262;6.830;2022-12-17T16:55:47;14.50;44.00
67870;DHT22;54673;52.262;6.830;2022-12-17T16:58:15;14.50;44.10
67870;DHT22;54673;52.262;6.830;2022-12-17T17:00:41;14.50;44.00
67870;DHT22;54673;52.262;6.830;2022-12-17T17:03:07;14.50;44.00
67870;DHT22;54673;52.262;6.830;2022-12-17T17:05:36;14.50;44.00
67870;DHT22;54673;52.262;6.830;2022-12-17T17:08:03;14.50;44.00
67870;DHT22;54673;52.262;6.830;2022-12-17T17:10:29;14.50;44.00
67870;DHT22;54673;52.262;6.830;2022-12-17T17:12:55;14.50;44.00
67870;DHT22;54673;52.262;6.830;2022-12-17T17:15:22;14.50;44.00
67870;DHT22;54673;52.262;6.830;2022-12-17T17:17:48;14.40;43.90
67870;DHT22;54673;52.262;6.830;2022-12-17T17:20:14;14.40;43.90
67870;DHT22;54673;52.262;6.830;2022-12-17T17:22:40;14.40;43.90
67870;DHT22;54673;52.262;6.830;2022-12-17T17:25:06;14.40;43.90
67870;DHT22;54673;52.262;6.830;2022-12-17T17:27:32;14.40;44.00
67870;DHT22;54673;52.262;6.830;2022-12-17T17:29:58;14.40;43.90
67870;DHT22;54673;52.262;6.830;2022-12-17T17:32:24;14.40;43.90
67870;DHT22;54673;52.262;6.830;2022-12-17T17:34:50;14.40;44.00
67870;DHT22;54673;52.262;6.830;2022-12-17T17:37:15;14.40;43.90
67870;DHT22;54673;52.262;6.830;2022-12-17T17:39:41;14.40;44.00
67870;DHT22;54673;52.262;6.830;2022-12-17T17:42:07;14.40;44.00
67870;DHT22;54673;52.262;6.830;2022-12-17T17:44:33;14.30;43.90
67870;DHT22;54673;52.262;6.830;2022-12-17T17:46:59;14.40;43.90
67870;DHT22;54673;52.262;6.830;2022-12-17T17:49:24;14.30;43.90
67870;DHT22;54673;52.262;6.830;2022-12-17T17:51:50;14.30;43.90
67870;DHT22;54673;52.262;6.830;2022-12-17T17:54:15;14.30;43.90
67870;DHT22;54673;52.262;6.830;2022-12-17T17:56:42;14.30;43.90
67870;DHT22;54673;52.262;6.830;2022-12-17T17:59:10;14.30;43.90
67870;DHT22;54673;52.262;6.830;2022-12-17T18:01:41;14.30;43.90
67870;DHT22;54673;52.262;6.830;2022-12-17T18:04:11;14.30;43.90
67870;DHT22;54673;52.262;6.830;2022-12-17T18:06:38;14.30;43.80
67870;DHT22;54673;52.262;6.830;2022-12-17T18:09:05;14.30;43.90
67870;DHT22;54673;52.262;6.830;2022-12-17T18:11:31;14.30;43.80
67870;DHT22;54673;52.262;6.830;2022-12-17T18:13:57;14.30;43.90
67870;DHT22;54673;52.262;6.830;2022-12-17T18:16:27;14.30;43.90